sensor_id;sensor_type;location;lat;lon;timestamp;temperature;humidity
73570;SHT30;61850;54.980;73.298;2023-02-27T00:00:07;-5.77;80.10
73570;SHT30;61850;54.980;73.298;2023-02-27T00:02:41;-5.75;79.97
73570;SHT30;61850;54.980;73.298;2023-02-27T00:05:08;-5.73;79.92
73570;SHT30;61850;54.980;73.298;2023-02-27T00:07:36;-5.77;79.84
73570;SHT30;61850;54.980;73.298;2023-02-27T00:10:09;-5.78;79.87
73570;SHT30;61850;54.980;73.298;2023-02-27T00:12:36;-5.78;79.87
73570;SHT30;61850;54.980;73.298;2023-02-27T00:15:04;-5.82;79.75
73570;SHT30;61850;54.980;73.298;2023-02-27T00:17:37;-5.79;79.67
73570;SHT30;61850;54.980;73.298;2023-02-27T00:20:14;-5.85;79.73
73570;SHT30;61850;54.980;73.298;2023-02-27T00:22:53;-5.85;79.72
73570;SHT30;61850;54.980;73.298;2023-02-27T00:25:19;-5.85;79.90
73570;SHT30;61850;54.980;73.298;2023-02-27T00:27:46;-5.85;79.67
73570;SHT30;61850;54.980;73.298;2023-02-27T00:30:13;-5.88;79.79
73570;SHT30;61850;54.980;73.298;2023-02-27T00:32:40;-5.91;79.88
73570;SHT30;61850;54.980;73.298;2023-02-27T00:35:08;-5.88;79.78
73570;SHT30;61850;54.980;73.298;2023-02-27T00:37:34;-5.95;79.80
73570;SHT30;61850;54.980;73.298;2023-02-27T00:40:11;-6.02;79.97
73570;SHT30;61850;54.980;73.298;2023-02-27T00:42:38;-6.01;80.20
73570;SHT30;61850;54.980;73.298;2023-02-27T00:45:06;-6.01;80.18
73570;SHT30;61850;54.980;73.298;2023-02-27T00:47:33;-6.08;80.10
73570;SHT30;61850;54.980;73.298;2023-02-27T00:50:10;-6.08;80.03
73570;SHT30;61850;54.980;73.298;2023-02-27T00:52:46;-6.06;80.03
73570;SHT30;61850;54.980;73.298;2023-02-27T00:55:16;-6.09;80.10
73570;SHT30;61850;54.980;73.298;2023-02-27T00:57:43;-6.13;79.98
73570;SHT30;61850;54.980;73.298;2023-02-27T01:00:09;-6.09;80.07
73570;SHT30;61850;54.980;73.298;2023-02-27T01:02:37;-6.17;80.05
73570;SHT30;61850;54.980;73.298;2023-02-27T01:05:14;-6.22;80.11
73570;SHT30;61850;54.980;73.298;2023-02-27T01:07:41;-6.20;80.15
73570;SHT30;61850;54.980;73.298;2023-02-27T01:10:13;-6.17;80.33
73570;SHT30;61850;54.980;73.298;2023-02-27T01:12:40;-6.22;80.41
73570;SHT30;61850;54.980;73.298;2023-02-27T01:15:06;-6.27;80.35
73570;SHT30;61850;54.980;73.298;2023-02-27T01:17:39;-6.26;80.29
73570;SHT30;61850;54.980;73.298;2023-02-27T01:20:06;-6.26;80.33
73570;SHT30;61850;54.980;73.298;2023-02-27T01:22:33;-6.29;80.37
73570;SHT30;61850;54.980;73.298;2023-02-27T01:24:59;-6.23;80.34
73570;SHT30;61850;54.980;73.298;2023-02-27T01:27:26;-6.25;80.37
73570;SHT30;61850;54.980;73.298;2023-02-27T01:29:52;-6.32;80.61
73570;SHT30;61850;54.980;73.298;2023-02-27T01:32:28;-6.33;80.54
73570;SHT30;61850;54.980;73.298;2023-02-27T01:34:55;-6.32;80.59
73570;SHT30;61850;54.980;73.298;2023-02-27T01:37:21;-6.34;80.62
73570;SHT30;61850;54.980;73.298;2023-02-27T01:39:48;-6.38;80.59
73570;SHT30;61850;54.980;73.298;2023-02-27T01:42:19;-6.38;80.70
73570;SHT30;61850;54.980;73.298;2023-02-27T01:47:34;-6.46;80.66
73570;SHT30;61850;54.980;73.298;2023-02-27T01:50:01;-6.50;80.70
73570;SHT30;61850;54.980;73.298;2023-02-27T01:52:32;-6.48;80.83
73570;SHT30;61850;54.980;73.298;2023-02-27T01:55:05;-6.51;80.67
73570;SHT30;61850;54.980;73.298;2023-02-27T01:57:43;-6.54;80.89
73570;SHT30;61850;54.980;73.298;2023-02-27T02:00:10;-6.54;80.68
73570;SHT30;61850;54.980;73.298;2023-02-27T02:02:41;-6.54;80.82
73570;SHT30;61850;54.980;73.298;2023-02-27T02:05:09;-6.53;80.76
73570;SHT30;61850;54.980;73.298;2023-02-27T02:07:36;-6.61;80.85
73570;SHT30;61850;54.980;73.298;2023-02-27T02:10:05;-6.58;80.92
73570;SHT30;61850;54.980;73.298;2023-02-27T02:12:40;-6.66;80.80
73570;SHT30;61850;54.980;73.298;2023-02-27T02:15:12;-6.64;80.90
73570;SHT30;61850;54.980;73.298;2023-02-27T02:17:45;-6.73;80.93
73570;SHT30;61850;54.980;73.298;2023-02-27T02:20:23;-6.75;80.84
73570;SHT30;61850;54.980;73.298;2023-02-27T02:23:20;-6.88;81.05
73570;SHT30;61850;54.980;73.298;2023-02-27T02:44:29;-7.29;80.99
73570;SHT30;61850;54.980;73.298;2023-02-27T02:52:24;-7.43;80.87
73570;SHT30;61850;54.980;73.298;2023-02-27T02:57:31;-7.46;80.81
73570;SHT30;61850;54.980;73.298;2023-02-27T03:02:48;-7.51;80.69
73570;SHT30;61850;54.980;73.298;2023-02-27T03:05:23;-7.54;80.77
73570;SHT30;61850;54.980;73.298;2023-02-27T03:08:04;-7.60;80.72
73570;SHT30;61850;54.980;73.298;2023-02-27T03:10:38;-7.63;80.69
73570;SHT30;61850;54.980;73.298;2023-02-27T03:13:11;-7.60;80.48
73570;SHT30;61850;54.980;73.298;2023-02-27T03:15:40;-7.63;80.40
73570;SHT30;61850;54.980;73.298;2023-02-27T03:18:15;-7.61;80.42
73570;SHT30;61850;54.980;73.298;2023-02-27T03:20:51;-7.57;80.34
73570;SHT30;61850;54.980;73.298;2023-02-27T03:23:33;-7.51;80.08
73570;SHT30;61850;54.980;73.298;2023-02-27T03:26:01;-7.47;79.91
73570;SHT30;61850;54.980;73.298;2023-02-27T03:28:36;-7.43;79.73
73570;SHT30;61850;54.980;73.298;2023-02-27T03:31:21;-7.42;79.64
73570;SHT30;61850;54.980;73.298;2023-02-27T03:33:56;-7.42;79.66
73570;SHT30;61850;54.980;73.298;2023-02-27T03:39:01;-7.23;79.28
73570;SHT30;61850;54.980;73.298;2023-02-27T03:41:32;-7.13;79.04
73570;SHT30;61850;54.980;73.298;2023-02-27T03:47:22;-7.05;78.30
73570;SHT30;61850;54.980;73.298;2023-02-27T03:49:49;-7.11;78.34
73570;SHT30;61850;54.980;73.298;2023-02-27T03:52:19;-7.06;78.30
73570;SHT30;61850;54.980;73.298;2023-02-27T03:54:57;-7.06;78.20
73570;SHT30;61850;54.980;73.298;2023-02-27T03:57:25;-7.05;77.97
73570;SHT30;61850;54.980;73.298;2023-02-27T03:59:52;-7.05;77.64
73570;SHT30;61850;54.980;73.298;2023-02-27T04:02:29;-7.02;77.87
73570;SHT30;61850;54.980;73.298;2023-02-27T04:04:55;-6.95;77.62
73570;SHT30;61850;54.980;73.298;2023-02-27T04:18:28;-6.77;77.52
73570;SHT30;61850;54.980;73.298;2023-02-27T04:21:09;-6.75;77.59
73570;SHT30;61850;54.980;73.298;2023-02-27T04:23:45;-6.75;77.57
73570;SHT30;61850;54.980;73.298;2023-02-27T04:26:31;-6.68;77.49
73570;SHT30;61850;54.980;73.298;2023-02-27T04:29:06;-6.61;77.69
73570;SHT30;61850;54.980;73.298;2023-02-27T04:32:25;-6.48;77.66
73570;SHT30;61850;54.980;73.298;2023-02-27T04:34:25;-6.34;77.20
73570;SHT30;61850;54.980;73.298;2023-02-27T04:37:09;-6.25;76.97
73570;SHT30;61850;54.980;73.298;2023-02-27T04:39:49;-6.22;76.86
73570;SHT30;61850;54.980;73.298;2023-02-27T04:42:18;-6.30;76.88
73570;SHT30;61850;54.980;73.298;2023-02-27T04:44:45;-6.22;77.00
73570;SHT30;61850;54.980;73.298;2023-02-27T04:47:12;-5.98;76.79
73570;SHT30;61850;54.980;73.298;2023-02-27T04:49:47;-5.94;76.70
73570;SHT30;61850;54.980;73.298;2023-02-27T04:52:17;-5.89;76.38
73570;SHT30;61850;54.980;73.298;2023-02-27T04:54:48;-5.81;76.45
73570;SHT30;61850;54.980;73.298;2023-02-27T04:57:20;-5.74;76.22
73570;SHT30;61850;54.980;73.298;2023-02-27T04:59:53;-5.50;75.87
73570;SHT30;61850;54.980;73.298;2023-02-27T05:02:21;-5.46;75.92
73570;SHT30;61850;54.980;73.298;2023-02-27T05:04:50;-5.41;75.76
73570;SHT30;61850;54.980;73.298;2023-02-27T05:07:19;-5.27;75.58
73570;SHT30;61850;54.980;73.298;2023-02-27T05:09:56;-5.17;75.55
73570;SHT30;61850;54.980;73.298;2023-02-27T05:15:10;-4.99;75.10
73570;SHT30;61850;54.980;73.298;2023-02-27T05:18:02;-4.95;75.00
73570;SHT30;61850;54.980;73.298;2023-02-27T05:20:32;-4.77;74.60
73570;SHT30;61850;54.980;73.298;2023-02-27T05:23:24;-4.78;74.50
73570;SHT30;61850;54.980;73.298;2023-02-27T05:28:31;-4.56;73.89
73570;SHT30;61850;54.980;73.298;2023-02-27T05:36:38;-4.30;73.69
73570;SHT30;61850;54.980;73.298;2023-02-27T05:39:08;-4.23;73.47
73570;SHT30;61850;54.980;73.298;2023-02-27T05:41:40;-4.06;72.71
73570;SHT30;61850;54.980;73.298;2023-02-27T05:44:13;-4.12;72.64
73570;SHT30;61850;54.980;73.298;2023-02-27T05:46:42;-3.99;72.08
73570;SHT30;61850;54.980;73.298;2023-02-27T05:51:40;-3.70;71.60
73570;SHT30;61850;54.980;73.298;2023-02-27T05:54:23;-3.60;71.70
73570;SHT30;61850;54.980;73.298;2023-02-27T05:56:51;-3.50;71.32
73570;SHT30;61850;54.980;73.298;2023-02-27T05:59:31;-3.78;71.27
73570;SHT30;61850;54.980;73.298;2023-02-27T06:01:59;-3.65;71.55
73570;SHT30;61850;54.980;73.298;2023-02-27T06:04:30;-3.44;71.43
73570;SHT30;61850;54.980;73.298;2023-02-27T06:06:56;-3.33;71.15
73570;SHT30;61850;54.980;73.298;2023-02-27T06:09:23;-3.24;70.94
73570;SHT30;61850;54.980;73.298;2023-02-27T06:11:58;-3.33;71.29
73570;SHT30;61850;54.980;73.298;2023-02-27T06:14:26;-3.31;70.70
73570;SHT30;61850;54.980;73.298;2023-02-27T06:16:52;-3.23;70.54
73570;SHT30;61850;54.980;73.298;2023-02-27T06:19:18;-3.16;70.12
73570;SHT30;61850;54.980;73.298;2023-02-27T06:21:44;-3.36;70.36
73570;SHT30;61850;54.980;73.298;2023-02-27T06:24:10;-3.21;70.32
73570;SHT30;61850;54.980;73.298;2023-02-27T06:26:39;-3.30;70.82
73570;SHT30;61850;54.980;73.298;2023-02-27T06:29:15;-3.41;70.39
73570;SHT30;61850;54.980;73.298;2023-02-27T06:31:42;-3.24;70.32
73570;SHT30;61850;54.980;73.298;2023-02-27T06:34:09;-3.31;70.62
73570;SHT30;61850;54.980;73.298;2023-02-27T06:36:35;-3.46;70.53
73570;SHT30;61850;54.980;73.298;2023-02-27T06:39:11;-3.40;70.77
73570;SHT30;61850;54.980;73.298;2023-02-27T06:41:37;-3.40;70.37
73570;SHT30;61850;54.980;73.298;2023-02-27T06:44:08;-3.46;70.82
73570;SHT30;61850;54.980;73.298;2023-02-27T06:46:34;-3.52;71.25
73570;SHT30;61850;54.980;73.298;2023-02-27T06:49:00;-3.30;71.24
73570;SHT30;61850;54.980;73.298;2023-02-27T06:51:37;-3.23;70.67
73570;SHT30;61850;54.980;73.298;2023-02-27T06:54:04;-3.12;70.55
73570;SHT30;61850;54.980;73.298;2023-02-27T06:56:31;-3.17;69.79
73570;SHT30;61850;54.980;73.298;2023-02-27T06:58:57;-3.13;70.01
73570;SHT30;61850;54.980;73.298;2023-02-27T07:01:24;-3.13;69.71
73570;SHT30;61850;54.980;73.298;2023-02-27T07:03:51;-3.12;69.34
73570;SHT30;61850;54.980;73.298;2023-02-27T07:06:18;-2.99;69.65
73570;SHT30;61850;54.980;73.298;2023-02-27T07:08:55;-2.97;69.13
73570;SHT30;61850;54.980;73.298;2023-02-27T07:11:22;-2.97;68.62
73570;SHT30;61850;54.980;73.298;2023-02-27T07:13:48;-3.06;68.56
73570;SHT30;61850;54.980;73.298;2023-02-27T07:16:15;-3.00;68.80
73570;SHT30;61850;54.980;73.298;2023-02-27T07:18:41;-2.68;68.48
73570;SHT30;61850;54.980;73.298;2023-02-27T07:21:08;-2.58;68.33
73570;SHT30;61850;54.980;73.298;2023-02-27T07:23:35;-2.60;67.61
73570;SHT30;61850;54.980;73.298;2023-02-27T07:26:04;-2.51;67.25
73570;SHT30;61850;54.980;73.298;2023-02-27T07:28:30;-2.52;67.58
73570;SHT30;61850;54.980;73.298;2023-02-27T07:30:57;-2.40;67.18
73570;SHT30;61850;54.980;73.298;2023-02-27T07:33:23;-2.45;66.81
73570;SHT30;61850;54.980;73.298;2023-02-27T07:35:49;-2.50;66.81
73570;SHT30;61850;54.980;73.298;2023-02-27T07:38:17;-2.43;67.06
73570;SHT30;61850;54.980;73.298;2023-02-27T07:40:44;-2.58;67.05
73570;SHT30;61850;54.980;73.298;2023-02-27T07:43:29;-2.47;66.65
73570;SHT30;61850;54.980;73.298;2023-02-27T07:45:56;-2.40;66.01
73570;SHT30;61850;54.980;73.298;2023-02-27T07:48:25;-2.45;66.25
73570;SHT30;61850;54.980;73.298;2023-02-27T07:50:51;-2.48;65.96
73570;SHT30;61850;54.980;73.298;2023-02-27T07:53:17;-2.48;66.20
73570;SHT30;61850;54.980;73.298;2023-02-27T07:55:44;-2.54;65.81
73570;SHT30;61850;54.980;73.298;2023-02-27T07:58:10;-2.65;66.03
73570;SHT30;61850;54.980;73.298;2023-02-27T08:00:42;-2.75;66.07
73570;SHT30;61850;54.980;73.298;2023-02-27T08:03:08;-2.69;66.36
73570;SHT30;61850;54.980;73.298;2023-02-27T08:05:34;-2.54;66.15
73570;SHT30;61850;54.980;73.298;2023-02-27T08:08:01;-2.64;66.13
73570;SHT30;61850;54.980;73.298;2023-02-27T08:10:27;-2.73;66.02
73570;SHT30;61850;54.980;73.298;2023-02-27T08:12:59;-2.73;65.85
73570;SHT30;61850;54.980;73.298;2023-02-27T08:15:25;-2.73;65.87
73570;SHT30;61850;54.980;73.298;2023-02-27T08:20:47;-2.57;65.80
73570;SHT30;61850;54.980;73.298;2023-02-27T08:23:14;-2.43;65.72
73570;SHT30;61850;54.980;73.298;2023-02-27T08:25:40;-2.29;66.28
73570;SHT30;61850;54.980;73.298;2023-02-27T08:28:06;-2.29;65.97
73570;SHT30;61850;54.980;73.298;2023-02-27T08:30:32;-2.45;65.85
73570;SHT30;61850;54.980;73.298;2023-02-27T08:32:58;-2.52;66.65
73570;SHT30;61850;54.980;73.298;2023-02-27T08:35:29;-2.45;65.92
73570;SHT30;61850;54.980;73.298;2023-02-27T08:37:57;-2.50;65.55
73570;SHT30;61850;54.980;73.298;2023-02-27T08:40:23;-2.36;65.05
73570;SHT30;61850;54.980;73.298;2023-02-27T08:42:49;-2.44;65.06
73570;SHT30;61850;54.980;73.298;2023-02-27T08:45:16;-2.29;65.41
73570;SHT30;61850;54.980;73.298;2023-02-27T08:47:47;-2.33;65.60
73570;SHT30;61850;54.980;73.298;2023-02-27T08:50:19;-2.26;66.01
73570;SHT30;61850;54.980;73.298;2023-02-27T08:52:45;-2.33;65.47
73570;SHT30;61850;54.980;73.298;2023-02-27T08:55:16;-2.38;65.63
73570;SHT30;61850;54.980;73.298;2023-02-27T08:57:48;-2.38;65.78
73570;SHT30;61850;54.980;73.298;2023-02-27T09:00:15;-2.43;65.76
73570;SHT30;61850;54.980;73.298;2023-02-27T09:02:42;-2.40;65.68
73570;SHT30;61850;54.980;73.298;2023-02-27T09:05:08;-2.44;65.44
73570;SHT30;61850;54.980;73.298;2023-02-27T09:07:36;-2.50;65.19
73570;SHT30;61850;54.980;73.298;2023-02-27T09:10:02;-2.29;65.25
73570;SHT30;61850;54.980;73.298;2023-02-27T09:12:28;-2.21;64.90
73570;SHT30;61850;54.980;73.298;2023-02-27T09:14:59;-2.23;64.26
73570;SHT30;61850;54.980;73.298;2023-02-27T09:17:36;-2.19;64.07
73570;SHT30;61850;54.980;73.298;2023-02-27T09:20:07;-2.26;64.36
73570;SHT30;61850;54.980;73.298;2023-02-27T09:22:34;-2.27;63.88
73570;SHT30;61850;54.980;73.298;2023-02-27T09:25:06;-2.14;64.23
73570;SHT30;61850;54.980;73.298;2023-02-27T09:27:43;-2.15;64.66
73570;SHT30;61850;54.980;73.298;2023-02-27T09:30:10;-2.04;64.51
73570;SHT30;61850;54.980;73.298;2023-02-27T09:32:36;-2.20;64.10
73570;SHT30;61850;54.980;73.298;2023-02-27T09:35:12;-2.15;64.72
73570;SHT30;61850;54.980;73.298;2023-02-27T09:37:41;-2.24;64.19
73570;SHT30;61850;54.980;73.298;2023-02-27T09:42:57;-2.02;63.86
73570;SHT30;61850;54.980;73.298;2023-02-27T09:45:29;-1.97;63.52
73570;SHT30;61850;54.980;73.298;2023-02-27T09:48:07;-2.10;63.79
73570;SHT30;61850;54.980;73.298;2023-02-27T09:50:48;-2.14;63.94
73570;SHT30;61850;54.980;73.298;2023-02-27T09:53:29;-2.17;64.33
73570;SHT30;61850;54.980;73.298;2023-02-27T09:56:46;-1.97;64.48
73570;SHT30;61850;54.980;73.298;2023-02-27T10:01:38;-2.19;64.38
73570;SHT30;61850;54.980;73.298;2023-02-27T10:04:18;-2.23;64.79
73570;SHT30;61850;54.980;73.298;2023-02-27T10:06:57;-2.10;65.07
73570;SHT30;61850;54.980;73.298;2023-02-27T10:14:52;-2.07;64.84
73570;SHT30;61850;54.980;73.298;2023-02-27T10:17:37;-2.09;64.90
73570;SHT30;61850;54.980;73.298;2023-02-27T10:20:07;-2.09;64.90
73570;SHT30;61850;54.980;73.298;2023-02-27T10:22:37;-2.03;64.80
73570;SHT30;61850;54.980;73.298;2023-02-27T10:25:10;-2.06;64.49
73570;SHT30;61850;54.980;73.298;2023-02-27T10:27:38;-2.11;64.53
73570;SHT30;61850;54.980;73.298;2023-02-27T10:30:25;-1.81;63.63
73570;SHT30;61850;54.980;73.298;2023-02-27T10:33:05;-1.58;62.96
73570;SHT30;61850;54.980;73.298;2023-02-27T10:35:38;-1.10;62.41
73570;SHT30;61850;54.980;73.298;2023-02-27T10:38:07;-0.97;62.55
73570;SHT30;61850;54.980;73.298;2023-02-27T10:40:43;-0.77;62.27
73570;SHT30;61850;54.980;73.298;2023-02-27T10:43:15;-0.79;62.11
73570;SHT30;61850;54.980;73.298;2023-02-27T10:45:44;-0.96;62.69
73570;SHT30;61850;54.980;73.298;2023-02-27T10:48:11;-0.96;63.03
73570;SHT30;61850;54.980;73.298;2023-02-27T10:50:42;-1.14;63.75
73570;SHT30;61850;54.980;73.298;2023-02-27T10:53:22;-1.50;64.25
73570;SHT30;61850;54.980;73.298;2023-02-27T10:56:02;-1.78;64.51
73570;SHT30;61850;54.980;73.298;2023-02-27T10:58:30;-1.76;64.68
73570;SHT30;61850;54.980;73.298;2023-02-27T11:01:00;-1.94;64.92
73570;SHT30;61850;54.980;73.298;2023-02-27T11:03:31;-2.06;65.31
73570;SHT30;61850;54.980;73.298;2023-02-27T11:06:05;-2.15;65.28
73570;SHT30;61850;54.980;73.298;2023-02-27T11:08:34;-2.20;65.45
73570;SHT30;61850;54.980;73.298;2023-02-27T11:11:09;-2.27;65.51
73570;SHT30;61850;54.980;73.298;2023-02-27T11:13:43;-2.40;66.04
73570;SHT30;61850;54.980;73.298;2023-02-27T11:16:17;-2.45;66.07
73570;SHT30;61850;54.980;73.298;2023-02-27T11:18:51;-2.62;66.31
73570;SHT30;61850;54.980;73.298;2023-02-27T11:21:24;-2.64;67.05
73570;SHT30;61850;54.980;73.298;2023-02-27T11:23:56;-2.73;67.43
73570;SHT30;61850;54.980;73.298;2023-02-27T11:26:35;-2.83;68.23
73570;SHT30;61850;54.980;73.298;2023-02-27T11:29:06;-2.81;68.37
73570;SHT30;61850;54.980;73.298;2023-02-27T11:34:16;-3.03;69.11
73570;SHT30;61850;54.980;73.298;2023-02-27T11:36:49;-3.14;69.47
73570;SHT30;61850;54.980;73.298;2023-02-27T11:39:38;-3.19;70.05
73570;SHT30;61850;54.980;73.298;2023-02-27T11:42:05;-3.33;70.79
73570;SHT30;61850;54.980;73.298;2023-02-27T11:44:32;-3.39;71.33
73570;SHT30;61850;54.980;73.298;2023-02-27T11:47:12;-3.44;72.13
73570;SHT30;61850;54.980;73.298;2023-02-27T11:49:46;-3.52;72.88
73570;SHT30;61850;54.980;73.298;2023-02-27T11:52:20;-3.55;73.53
73570;SHT30;61850;54.980;73.298;2023-02-27T11:54:57;-3.77;74.28
73570;SHT30;61850;54.980;73.298;2023-02-27T11:57:37;-3.83;74.56
73570;SHT30;61850;54.980;73.298;2023-02-27T12:00:05;-3.85;75.13
73570;SHT30;61850;54.980;73.298;2023-02-27T12:07:52;-4.05;75.88
73570;SHT30;61850;54.980;73.298;2023-02-27T12:10:22;-4.07;76.05
73570;SHT30;61850;54.980;73.298;2023-02-27T12:13:04;-4.14;76.16
73570;SHT30;61850;54.980;73.298;2023-02-27T12:15:47;-4.21;76.65
73570;SHT30;61850;54.980;73.298;2023-02-27T12:18:20;-4.24;76.69
73570;SHT30;61850;54.980;73.298;2023-02-27T12:20:56;-4.29;76.83
73570;SHT30;61850;54.980;73.298;2023-02-27T12:26:20;-4.43;77.45
73570;SHT30;61850;54.980;73.298;2023-02-27T12:31:26;-4.51;77.82
73570;SHT30;61850;54.980;73.298;2023-02-27T12:36:31;-4.57;78.03
73570;SHT30;61850;54.980;73.298;2023-02-27T12:39:18;-4.53;77.69
73570;SHT30;61850;54.980;73.298;2023-02-27T12:50:02;-4.56;76.93
73570;SHT30;61850;54.980;73.298;2023-02-27T12:55:14;-4.62;77.11
73570;SHT30;61850;54.980;73.298;2023-02-27T13:11:21;-4.96;76.99
73570;SHT30;61850;54.980;73.298;2023-02-27T13:18:56;-5.02;76.28
73570;SHT30;61850;54.980;73.298;2023-02-27T13:21:30;-5.00;75.86
73570;SHT30;61850;54.980;73.298;2023-02-27T13:24:23;-5.00;75.55
73570;SHT30;61850;54.980;73.298;2023-02-27T13:34:57;-5.06;75.19
73570;SHT30;61850;54.980;73.298;2023-02-27T13:37:56;-5.09;75.20
73570;SHT30;61850;54.980;73.298;2023-02-27T13:43:48;-5.08;74.95
73570;SHT30;61850;54.980;73.298;2023-02-27T13:45:53;-5.12;75.07
73570;SHT30;61850;54.980;73.298;2023-02-27T13:48:38;-5.12;74.84
73570;SHT30;61850;54.980;73.298;2023-02-27T13:51:38;-5.15;74.59
73570;SHT30;61850;54.980;73.298;2023-02-27T13:54:11;-5.15;74.53
73570;SHT30;61850;54.980;73.298;2023-02-27T14:01:56;-5.13;73.76
73570;SHT30;61850;54.980;73.298;2023-02-27T14:04:24;-5.17;73.64
73570;SHT30;61850;54.980;73.298;2023-02-27T14:07:03;-5.19;73.56
73570;SHT30;61850;54.980;73.298;2023-02-27T14:09:32;-5.20;73.34
73570;SHT30;61850;54.980;73.298;2023-02-27T14:12:00;-5.20;73.24
73570;SHT30;61850;54.980;73.298;2023-02-27T14:14:41;-5.20;73.44
73570;SHT30;61850;54.980;73.298;2023-02-27T14:28:46;-5.27;73.02
73570;SHT30;61850;54.980;73.298;2023-02-27T14:31:30;-5.34;72.92
73570;SHT30;61850;54.980;73.298;2023-02-27T14:34:01;-5.33;72.77
73570;SHT30;61850;54.980;73.298;2023-02-27T14:36:34;-5.33;72.75
73570;SHT30;61850;54.980;73.298;2023-02-27T14:39:06;-5.34;72.35
73570;SHT30;61850;54.980;73.298;2023-02-27T14:42:02;-5.34;72.02
73570;SHT30;61850;54.980;73.298;2023-02-27T14:44:40;-5.30;71.83
73570;SHT30;61850;54.980;73.298;2023-02-27T14:47:14;-5.36;71.69
73570;SHT30;61850;54.980;73.298;2023-02-27T14:49:45;-5.27;71.40
73570;SHT30;61850;54.980;73.298;2023-02-27T14:55:21;-5.29;71.16
73570;SHT30;61850;54.980;73.298;2023-02-27T14:58:17;-5.30;70.99
73570;SHT30;61850;54.980;73.298;2023-02-27T15:00:45;-5.33;70.67
73570;SHT30;61850;54.980;73.298;2023-02-27T15:03:17;-5.30;70.36
73570;SHT30;61850;54.980;73.298;2023-02-27T15:05:46;-5.27;69.92
73570;SHT30;61850;54.980;73.298;2023-02-27T15:08:24;-5.31;69.58
73570;SHT30;61850;54.980;73.298;2023-02-27T15:10:51;-5.30;69.63
73570;SHT30;61850;54.980;73.298;2023-02-27T15:13:40;-5.29;69.10
73570;SHT30;61850;54.980;73.298;2023-02-27T15:16:19;-5.31;69.15
73570;SHT30;61850;54.980;73.298;2023-02-27T15:19:00;-5.33;69.07
73570;SHT30;61850;54.980;73.298;2023-02-27T15:21:37;-5.36;69.22
73570;SHT30;61850;54.980;73.298;2023-02-27T15:24:05;-5.40;69.43
73570;SHT30;61850;54.980;73.298;2023-02-27T15:26:35;-5.41;69.43
73570;SHT30;61850;54.980;73.298;2023-02-27T15:29:03;-5.46;69.39
73570;SHT30;61850;54.980;73.298;2023-02-27T15:31:29;-5.50;69.53
73570;SHT30;61850;54.980;73.298;2023-02-27T15:34:07;-5.34;69.84
73570;SHT30;61850;54.980;73.298;2023-02-27T15:36:35;-5.23;69.20
73570;SHT30;61850;54.980;73.298;2023-02-27T15:39:06;-5.29;68.62
73570;SHT30;61850;54.980;73.298;2023-02-27T15:41:39;-5.26;68.72
73570;SHT30;61850;54.980;73.298;2023-02-27T15:44:06;-5.40;68.99
73570;SHT30;61850;54.980;73.298;2023-02-27T15:46:32;-5.50;69.36
73570;SHT30;61850;54.980;73.298;2023-02-27T15:49:00;-5.51;69.19
73570;SHT30;61850;54.980;73.298;2023-02-27T15:51:27;-5.57;69.33
73570;SHT30;61850;54.980;73.298;2023-02-27T15:53:57;-5.60;69.47
73570;SHT30;61850;54.980;73.298;2023-02-27T15:56:34;-5.67;69.46
73570;SHT30;61850;54.980;73.298;2023-02-27T15:59:03;-5.70;69.66
73570;SHT30;61850;54.980;73.298;2023-02-27T16:01:41;-5.73;69.45
73570;SHT30;61850;54.980;73.298;2023-02-27T16:04:13;-5.75;69.57
73570;SHT30;61850;54.980;73.298;2023-02-27T16:06:45;-5.74;69.47
73570;SHT30;61850;54.980;73.298;2023-02-27T16:09:23;-5.70;69.62
73570;SHT30;61850;54.980;73.298;2023-02-27T16:14:47;-5.85;70.16
73570;SHT30;61850;54.980;73.298;2023-02-27T16:17:35;-5.84;70.39
73570;SHT30;61850;54.980;73.298;2023-02-27T16:20:57;-5.84;70.51
73570;SHT30;61850;54.980;73.298;2023-02-27T16:26:05;-5.85;71.36
73570;SHT30;61850;54.980;73.298;2023-02-27T16:31:01;-5.85;71.59
73570;SHT30;61850;54.980;73.298;2023-02-27T16:33:32;-5.88;71.67
73570;SHT30;61850;54.980;73.298;2023-02-27T16:36:04;-5.92;72.07
73570;SHT30;61850;54.980;73.298;2023-02-27T16:38:40;-5.96;72.56
73570;SHT30;61850;54.980;73.298;2023-02-27T16:41:14;-5.99;72.84
73570;SHT30;61850;54.980;73.298;2023-02-27T16:43:43;-6.02;73.19
73570;SHT30;61850;54.980;73.298;2023-02-27T16:46:12;-6.06;73.54
73570;SHT30;61850;54.980;73.298;2023-02-27T16:48:52;-6.10;74.06
73570;SHT30;61850;54.980;73.298;2023-02-27T16:51:21;-6.12;74.09
73570;SHT30;61850;54.980;73.298;2023-02-27T16:53:54;-6.09;74.25
73570;SHT30;61850;54.980;73.298;2023-02-27T16:56:23;-6.09;74.52
73570;SHT30;61850;54.980;73.298;2023-02-27T16:58:51;-6.13;74.91
73570;SHT30;61850;54.980;73.298;2023-02-27T17:01:18;-6.17;75.26
73570;SHT30;61850;54.980;73.298;2023-02-27T17:03:46;-6.19;75.41
73570;SHT30;61850;54.980;73.298;2023-02-27T17:06:17;-6.19;75.74
73570;SHT30;61850;54.980;73.298;2023-02-27T17:08:53;-6.26;76.03
73570;SHT30;61850;54.980;73.298;2023-02-27T17:11:21;-6.25;76.34
73570;SHT30;61850;54.980;73.298;2023-02-27T17:13:51;-6.23;76.50
73570;SHT30;61850;54.980;73.298;2023-02-27T17:16:19;-6.27;76.75
73570;SHT30;61850;54.980;73.298;2023-02-27T17:18:45;-6.30;77.00
73570;SHT30;61850;54.980;73.298;2023-02-27T17:21:12;-6.30;77.20
73570;SHT30;61850;54.980;73.298;2023-02-27T17:23:39;-6.37;77.60
73570;SHT30;61850;54.980;73.298;2023-02-27T17:26:05;-6.38;77.80
73570;SHT30;61850;54.980;73.298;2023-02-27T17:28:33;-6.44;78.04
73570;SHT30;61850;54.980;73.298;2023-02-27T17:31:00;-6.46;78.39
73570;SHT30;61850;54.980;73.298;2023-02-27T17:33:39;-6.43;78.38
73570;SHT30;61850;54.980;73.298;2023-02-27T17:36:08;-6.46;78.41
73570;SHT30;61850;54.980;73.298;2023-02-27T17:38:37;-6.46;78.53
73570;SHT30;61850;54.980;73.298;2023-02-27T17:41:07;-6.43;78.61
73570;SHT30;61850;54.980;73.298;2023-02-27T17:43:34;-6.43;78.64
73570;SHT30;61850;54.980;73.298;2023-02-27T17:46:05;-6.44;78.93
73570;SHT30;61850;54.980;73.298;2023-02-27T17:48:32;-6.44;79.08
73570;SHT30;61850;54.980;73.298;2023-02-27T17:51:07;-6.43;79.19
73570;SHT30;61850;54.980;73.298;2023-02-27T17:53:34;-6.46;79.58
73570;SHT30;61850;54.980;73.298;2023-02-27T17:56:01;-6.46;79.76
73570;SHT30;61850;54.980;73.298;2023-02-27T17:58:28;-6.44;80.07
73570;SHT30;61850;54.980;73.298;2023-02-27T18:01:02;-6.44;80.26
73570;SHT30;61850;54.980;73.298;2023-02-27T18:03:28;-6.40;80.53
73570;SHT30;61850;54.980;73.298;2023-02-27T18:05:56;-6.34;80.64
73570;SHT30;61850;54.980;73.298;2023-02-27T18:08:33;-6.33;80.77
73570;SHT30;61850;54.980;73.298;2023-02-27T18:11:07;-6.32;81.00
73570;SHT30;61850;54.980;73.298;2023-02-27T18:13:45;-6.22;81.19
73570;SHT30;61850;54.980;73.298;2023-02-27T18:16:12;-6.25;81.28
73570;SHT30;61850;54.980;73.298;2023-02-27T18:18:39;-6.22;81.57
73570;SHT30;61850;54.980;73.298;2023-02-27T18:21:11;-6.22;81.71
73570;SHT30;61850;54.980;73.298;2023-02-27T18:23:43;-6.17;81.94